Aérodrome :
LOGIN :

S'inscrire | Disclaimer

   EN    FR    IT 

 










Légende :    VFR   VFR Marginal   IFR   IFR Intensif   IFR Très Intensif
Visi : 
Plafond : 
>= 8 km
>= 3000ft
5 à 8 km
1000 à 3000 ft
1500m à 5 km
500 à 1000 ft
800 à 1500m
200 à 500 ft
< 800m
< 200 ft
Symboles :   Orages  Brouillard  Fortes neiges  Fortes précipitations  Vent > 20 kt
SIGMETs :   Divers  Orages  Givrage  Turbulence  Onde Orograph.  Cendres Volcan.







- Altitude de l'aérodrome : 1363 ft


ETIC - Grafenwohr Army Air Field

DERNIER METAR :
  • 252356Z AUTO 28005KT 9999 FEW023 FEW034 01/01 A3023 RMK AO2 SLP257 T00070007 10026 20001 52016 $

METARs EXPIRÉS :
  • 252326Z AUTO 00000KT 9999 FEW024 OVC032 01/01 A3022 RMK AO2 SLP251 $
  • 252256Z AUTO 30004KT 9999 BKN026 OVC031 00/00 A3021 RMK AO2 SLP250 T00010001 400750001 $
  • 252241Z AUTO 00000KT 9999 BKN026 00/00 A3021 RMK AO2 BKN V SCT SLP250 $
  • 252156Z AUTO 27005KT 9999 FEW026 01/01 A3019 RMK AO2 SLP245 T00110011 $

TAF TAF ETIC
Valide du 25 à 20h jusqu'au 27 à 02h UTC


252000Z 2520/2702 VRB06KT 9999 SCT030 QNH3014INS
BECMG 2602/2603 VRB06KT 8000 BR BKN010 OVC015 620103 QNH3022INS
BECMG 2607/2608 30006KT 9999 NSW SCT015 BKN025 620253 QNH3028INS
TEMPO 2612/2616 29012G18KT
BECMG 2620/2621 28009KT 8000 BR BKN009 OVC012 620107 QNH3034INS
TEMPO 2623/2702 BKN005 TX07/2614Z TN00/2602Z
Pas de NOTAMs connus pour ce terrain.
1 SIGMET publié pour la FIR München (EDMM) :
 
Turbulence forte
EDMM SIGMET 2 VALID 252231/260100 EDZF
EDMM MUNCHEN FIR SEV TURB FCST SE OF LINE N4734 E01038 - N4846 E01349 FL140/240 STNR WKN=



MET'MAP, la Météo Aéronautique d'un coup d'oeil ! - Copyright ORBIFLY Décembre 2007 - Disclaimer

ORBIFLY MET'MAP TEAM :

Programmation & Développement : Alexandra Zaïnal
Conception & Développement : Baudouin d'Aumeries
Co-Programmation & Développement : Marc-Olivier Méhu
Soutien technique & logistique : Manuel Goepfert

Contact : metmap@orbifly.com




SOURCES & CREDITS :

   NOAA